Time;durP1;ratioP1;P1;durP2;ratioP2;P2;SDS_P1;SDS_P2;PMS_P1;PMS_P2;Temp;Humidity;BMP_temperature;BMP_pressure;BME280_temperature;BME280_humidity;BME280_pressure;Samples;Min_cycle;Max_cycle;Signal;HPM_P1;HPM_P2
2021/04/23 00:00:28;;;;;;;8.02;4.53;;;7.00;99.90;;;;;;5067482;28;20231;-82
2021/04/23 00:02:56;;;;;;;9.18;4.78;;;6.90;99.90;;;;;;5066219;28;20187;-81
2021/04/23 00:05:22;;;;;;;16.05;4.80;;;7.20;99.90;;;;;;5075915;28;20226;-80
2021/04/23 00:07:48;;;;;;;7.32;4.22;;;6.90;99.90;;;;;;5074475;28;20548;-81
2021/04/23 00:10:17;;;;;;;13.98;4.80;;;6.70;99.90;;;;;;5064840;28;20215;-81
2021/04/23 00:12:43;;;;;;;13.02;7.05;;;6.70;99.90;;;;;;5064537;28;20207;-82
2021/04/23 00:15:14;;;;;;;12.35;8.40;;;6.50;99.90;;;;;;5065356;28;20214;-81
2021/04/23 00:17:41;;;;;;;8.30;5.70;;;7.20;99.90;;;;;;5063854;28;20195;-81
2021/04/23 00:20:11;;;;;;;12.07;7.10;;;6.90;99.90;;;;;;5072222;28;20231;-81
2021/04/23 00:22:38;;;;;;;9.52;4.93;;;;;;;;;;5071796;28;20198;-82
2021/04/23 00:25:05;;;;;;;9.95;5.20;;;7.10;99.90;;;;;;5062650;28;20207;-81
2021/04/23 00:27:32;;;;;;;12.23;5.93;;;6.80;99.90;;;;;;5062345;28;20199;-82
2021/04/23 00:30:00;;;;;;;11.23;5.60;;;;;;;;;;5061602;28;20215;-81
2021/04/23 00:32:27;;;;;;;6.32;5.28;;;6.80;99.90;;;;;;5061799;28;20218;-80
2021/04/23 00:34:54;;;;;;;8.15;4.53;;;6.50;99.90;;;;;;5061402;28;20203;-81
2021/04/23 00:37:21;;;;;;;12.23;6.00;;;6.70;99.90;;;;;;5062055;28;20233;-81
2021/04/23 00:39:47;;;;;;;13.30;5.72;;;6.70;99.90;;;;;;5061616;28;20238;-80
2021/04/23 00:42:14;;;;;;;9.50;5.15;;;6.80;99.90;;;;;;5062418;28;20206;-82
2021/04/23 00:44:40;;;;;;;11.43;5.75;;;;;;;;;;5075217;28;20213;-81
2021/04/23 00:47:06;;;;;;;8.30;5.45;;;6.40;99.90;;;;;;5070450;28;20218;-81
2021/04/23 00:49:32;;;;;;;10.45;5.38;;;6.90;99.90;;;;;;5061968;28;20580;-80
2021/04/23 00:52:01;;;;;;;10.65;5.07;;;6.20;99.90;;;;;;5061762;28;20222;-81
2021/04/23 00:54:29;;;;;;;10.82;5.07;;;6.40;99.90;;;;;;5062711;28;20203;-81
2021/04/23 00:56:56;;;;;;;8.25;4.25;;;6.40;99.90;;;;;;5063824;28;20208;-81
2021/04/23 00:59:23;;;;;;;8.55;4.90;;;6.30;99.90;;;;;;5064578;28;20269;-82
2021/04/23 01:01:54;;;;;;;13.18;5.30;;;6.60;99.90;;;;;;5065631;28;20260;-81
2021/04/23 01:04:21;;;;;;;14.43;6.85;;;6.60;99.90;;;;;;5069538;28;20210;-81
2021/04/23 01:06:48;;;;;;;10.90;6.70;;;6.40;99.90;;;;;;5078376;28;20198;-81
2021/04/23 01:09:18;;;;;;;11.10;6.47;;;5.90;99.90;;;;;;5070888;28;20195;-81
2021/04/23 01:11:46;;;;;;;16.65;6.70;;;6.30;99.90;;;;;;5066240;28;20222;-82
2021/04/23 01:14:12;;;;;;;13.50;7.65;;;6.50;99.90;;;;;;5078374;28;20198;-82
2021/04/23 01:16:40;;;;;;;8.40;5.47;;;5.90;99.90;;;;;;5075541;28;20646;-82
2021/04/23 01:19:08;;;;;;;12.55;6.47;;;6.10;99.90;;;;;;5065376;28;20211;-82
2021/04/23 01:21:36;;;;;;;15.60;7.90;;;6.20;99.90;;;;;;5062521;28;20725;-81
2021/04/23 01:24:07;;;;;;;15.27;7.45;;;6.10;99.90;;;;;;5061873;28;20586;-82
2021/04/23 01:26:36;;;;;;;13.63;6.88;;;6.30;99.90;;;;;;5061408;28;20187;-81
2021/04/23 01:29:06;;;;;;;14.70;7.55;;;6.40;99.90;;;;;;5061118;28;20218;-82
2021/04/23 01:31:37;;;;;;;20.70;6.55;;;6.00;99.90;;;;;;5060757;28;20716;-82
2021/04/23 01:34:07;;;;;;;17.73;7.10;;;5.90;99.90;;;;;;5061446;28;20194;-82
2021/04/23 01:36:34;;;;;;;17.95;6.60;;;6.40;99.90;;;;;;5060898;28;20211;-82
2021/04/23 01:39:04;;;;;;;15.02;6.80;;;6.10;99.90;;;;;;5060629;28;20739;-81
2021/04/23 01:41:30;;;;;;;13.60;7.57;;;6.40;99.90;;;;;;5060469;28;20226;-81
2021/04/23 01:43:56;;;;;;;18.85;7.85;;;6.30;99.90;;;;;;5061571;28;20213;-82
2021/04/23 01:46:22;;;;;;;16.60;7.72;;;6.10;99.90;;;;;;5061494;28;20674;-82
2021/04/23 01:48:48;;;;;;;10.90;5.68;;;6.10;99.90;;;;;;5060530;28;20203;-81
2021/04/23 01:51:16;;;;;;;23.85;6.68;;;5.90;99.90;;;;;;5060723;28;20326;-81
2021/04/23 01:53:43;;;;;;;17.83;6.55;;;6.00;99.90;;;;;;5060772;28;20206;-81
2021/04/23 01:56:11;;;;;;;10.95;6.00;;;6.10;99.90;;;;;;5060763;28;20674;-81
2021/04/23 01:58:39;;;;;;;12.25;6.30;;;6.30;99.90;;;;;;5068974;28;20257;-81
2021/04/23 02:01:07;;;;;;;11.85;5.65;;;6.20;99.90;;;;;;5068974;28;20230;-81
2021/04/23 02:03:36;;;;;;;11.45;6.22;;;6.60;99.90;;;;;;5062714;28;20202;-82
2021/04/23 02:06:04;;;;;;;10.00;5.85;;;5.90;99.90;;;;;;5059832;28;20200;-82
2021/04/23 02:08:31;;;;;;;9.27;5.25;;;;;;;;;;5061121;28;20230;-81
2021/04/23 02:11:01;;;;;;;14.20;6.22;;;6.30;99.90;;;;;;5073906;28;20223;-80
2021/04/23 02:13:29;;;;;;;11.50;6.13;;;6.30;99.90;;;;;;5065929;28;20276;-81
2021/04/23 02:15:57;;;;;;;14.93;5.18;;;6.60;99.90;;;;;;5073414;28;20203;-81
2021/04/23 02:18:26;;;;;;;14.15;6.53;;;6.40;99.90;;;;;;5074290;28;20210;-81
2021/04/23 02:20:52;;;;;;;16.15;5.75;;;6.30;99.90;;;;;;5073410;28;20215;-81
2021/04/23 02:23:19;;;;;;;13.68;5.85;;;;;;;;;;5071693;28;20626;-81
2021/04/23 02:25:46;;;;;;;13.70;6.15;;;;;;;;;;5074495;28;20642;-81
2021/04/23 02:28:13;;;;;;;17.37;6.80;;;;;;;;;;5071947;28;20462;-80
2021/04/23 02:30:42;;;;;;;15.82;7.90;;;6.30;99.90;;;;;;5092384;22;20464;-84
2021/04/23 02:33:12;;;;;;;14.07;7.47;;;6.40;99.90;;;;;;5064177;28;20203;-84
2021/04/23 02:35:39;;;;;;;13.90;6.88;;;6.30;99.90;;;;;;5063175;28;20627;-84
2021/04/23 02:38:06;;;;;;;15.48;6.60;;;;;;;;;;5058610;28;20447;-85
2021/04/23 02:40:33;;;;;;;18.00;7.30;;;;;;;;;;5070394;28;20531;-85
2021/04/23 02:43:02;;;;;;;17.83;7.22;;;6.30;99.90;;;;;;5073673;28;20492;-85
2021/04/23 02:45:32;;;;;;;11.75;6.03;;;6.20;99.90;;;;;;5068609;28;20203;-85
2021/04/23 02:48:00;;;;;;;15.80;6.53;;;6.20;99.90;;;;;;5069324;28;20210;-85
2021/04/23 02:50:28;;;;;;;19.20;6.38;;;6.40;99.90;;;;;;5069849;28;20632;-86
2021/04/23 02:52:56;;;;;;;14.05;6.22;;;6.30;99.90;;;;;;5070628;28;20440;-86
2021/04/23 02:55:22;;;;;;;15.57;7.65;;;6.00;99.90;;;;;;5070038;28;20443;-85
2021/04/23 02:58:01;;;;;;;12.90;7.50;;;6.30;99.90;;;;;;5067900;28;20203;-85
2021/04/23 03:00:29;;;;;;;15.82;6.20;;;6.20;99.90;;;;;;5065475;28;20230;-85
2021/04/23 03:02:56;;;;;;;14.63;5.72;;;6.00;99.90;;;;;;5076996;28;20207;-85
2021/04/23 03:05:24;;;;;;;12.18;6.63;;;6.20;99.90;;;;;;5076451;28;20207;-86
2021/04/23 03:07:53;;;;;;;12.88;5.97;;;6.10;99.90;;;;;;5069913;28;20499;-86
2021/04/23 03:10:20;;;;;;;14.15;6.93;;;;;;;;;;5070626;28;20219;-85
2021/04/23 03:12:46;;;;;;;13.68;6.35;;;6.10;99.90;;;;;;5070235;28;20207;-85
2021/04/23 03:15:14;;;;;;;13.20;6.50;;;6.10;99.90;;;;;;5069628;28;20195;-85
2021/04/23 03:17:40;;;;;;;11.88;5.95;;;6.30;99.90;;;;;;5069935;28;20207;-86
2021/04/23 03:20:18;;;;;;;10.85;5.85;;;6.00;99.90;;;;;;5070837;28;20223;-87
2021/04/23 03:22:46;;;;;;;16.58;7.63;;;6.20;99.90;;;;;;5070473;28;20255;-86
2021/04/23 03:25:13;;;;;;;12.32;5.85;;;6.10;99.90;;;;;;5069807;28;20206;-87
2021/04/23 03:27:40;;;;;;;15.88;5.85;;;;;;;;;;5069331;28;20206;-86
2021/04/23 03:30:10;;;;;;;17.40;6.97;;;6.10;99.90;;;;;;5069406;28;20215;-86
2021/04/23 03:32:37;;;;;;;13.40;5.72;;;5.90;99.90;;;;;;5069048;28;20202;-85
2021/04/23 03:35:04;;;;;;;15.18;6.05;;;6.10;99.90;;;;;;5069469;28;20222;-86
2021/04/23 03:37:30;;;;;;;10.07;7.13;;;6.10;99.90;;;;;;5073245;28;20206;-85
2021/04/23 03:39:57;;;;;;;10.57;6.43;;;;;;;;;;5074282;28;20233;-86
2021/04/23 03:42:24;;;;;;;12.65;5.78;;;6.30;99.90;;;;;;5074025;28;20214;-87
2021/04/23 03:44:50;;;;;;;14.50;5.85;;;5.80;99.90;;;;;;5068919;28;20211;-86
2021/04/23 03:47:16;;;;;;;10.52;5.15;;;6.00;99.90;;;;;;5069539;28;20207;-86
2021/04/23 03:49:43;;;;;;;18.65;6.05;;;5.90;99.90;;;;;;5069254;28;20225;-86
2021/04/23 03:52:09;;;;;;;13.10;6.10;;;;;;;;;;5069808;28;20222;-86
2021/04/23 03:54:37;;;;;;;18.77;6.35;;;6.10;99.90;;;;;;5069438;28;20218;-86
2021/04/23 03:57:04;;;;;;;16.33;6.70;;;;;;;;;;5070306;28;20229;-85
2021/04/23 03:59:31;;;;;;;9.40;5.32;;;;;;;;;;5073310;28;20231;-86
2021/04/23 04:01:57;;;;;;;18.80;7.13;;;6.30;99.90;;;;;;5073495;28;20211;-86
2021/04/23 04:04:23;;;;;;;10.30;5.30;;;5.80;99.90;;;;;;5070253;28;20214;-86
2021/04/23 04:06:49;;;;;;;14.52;5.45;;;6.00;99.90;;;;;;5069714;28;20203;-86
2021/04/23 04:09:17;;;;;;;20.25;5.90;;;6.10;99.90;;;;;;5075776;28;20203;-85
2021/04/23 04:11:43;;;;;;;19.17;6.63;;;6.20;99.90;;;;;;5071625;28;20223;-86
2021/04/23 04:14:10;;;;;;;11.48;6.25;;;5.80;99.90;;;;;;5067599;28;20235;-86
2021/04/23 04:16:36;;;;;;;14.73;7.20;;;6.20;99.90;;;;;;5068324;28;20203;-86
2021/04/23 04:19:03;;;;;;;10.38;6.50;;;5.90;99.90;;;;;;5067726;28;20659;-86
2021/04/23 04:21:30;;;;;;;17.70;6.63;;;5.90;99.90;;;;;;5067750;28;20246;-86
2021/04/23 04:23:57;;;;;;;13.05;7.15;;;6.00;99.90;;;;;;5068536;28;20199;-86
2021/04/23 04:26:23;;;;;;;15.45;6.28;;;6.00;99.90;;;;;;5067337;28;20203;-85
2021/04/23 04:28:50;;;;;;;13.95;6.13;;;6.40;99.90;;;;;;5069704;28;20237;-86
2021/04/23 04:31:16;;;;;;;15.43;7.28;;;6.00;99.90;;;;;;5071516;28;20288;-86
2021/04/23 04:33:43;;;;;;;13.90;6.32;;;6.10;99.90;;;;;;5072198;28;20203;-86
2021/04/23 04:36:09;;;;;;;16.65;7.65;;;;;;;;;;5071131;28;20241;-86
2021/04/23 04:38:36;;;;;;;9.75;6.68;;;5.90;99.90;;;;;;5072240;28;20199;-86
2021/04/23 04:41:03;;;;;;;15.32;6.70;;;6.10;99.90;;;;;;5071153;28;20685;-86
2021/04/23 04:43:29;;;;;;;13.27;7.03;;;6.10;99.90;;;;;;5071262;28;20214;-86
2021/04/23 04:45:55;;;;;;;24.13;7.80;;;6.10;99.90;;;;;;5062777;28;20211;-85
2021/04/23 04:48:22;;;;;;;14.40;6.30;;;6.20;99.90;;;;;;5064697;28;20206;-85
2021/04/23 04:50:51;;;;;;;16.25;7.57;;;6.20;99.90;;;;;;5067291;28;20230;-85
2021/04/23 04:53:19;;;;;;;12.43;6.03;;;6.10;99.90;;;;;;5068722;28;20203;-87
2021/04/23 04:55:59;;;;;;;12.00;6.30;;;6.00;99.90;;;;;;5070875;28;20214;-85
2021/04/23 04:58:27;;;;;;;15.85;7.38;;;6.10;99.90;;;;;;5071019;28;20180;-85
2021/04/23 05:00:54;;;;;;;13.13;6.93;;;6.50;99.90;;;;;;5070825;28;20227;-86
2021/04/23 05:03:20;;;;;;;21.30;7.57;;;6.10;99.90;;;;;;5070084;28;20266;-85
2021/04/23 05:05:48;;;;;;;11.90;6.03;;;6.20;99.90;;;;;;5070733;28;20567;-86
2021/04/23 05:08:15;;;;;;;12.40;6.45;;;6.40;99.90;;;;;;5070989;28;20207;-86
2021/04/23 05:10:42;;;;;;;17.65;7.15;;;6.10;99.90;;;;;;5072069;28;20219;-86
2021/04/23 05:13:08;;;;;;;14.38;7.80;;;6.40;99.90;;;;;;5071524;28;20211;-85
2021/04/23 05:15:34;;;;;;;10.93;6.88;;;5.90;99.90;;;;;;5071042;28;20214;-86
2021/04/23 05:18:00;;;;;;;11.80;7.80;;;;;;;;;;5071140;28;20203;-86
2021/04/23 05:20:27;;;;;;;15.52;6.70;;;;;;;;;;5070230;28;20226;-87
2021/04/23 05:22:54;;;;;;;15.77;7.18;;;6.40;99.90;;;;;;5070971;28;20265;-86
2021/04/23 05:25:22;;;;;;;14.40;5.80;;;6.00;99.90;;;;;;5075853;28;20211;-87
2021/04/23 05:27:49;;;;;;;26.70;6.60;;;6.20;99.90;;;;;;5077264;28;20198;-87
2021/04/23 05:30:18;;;;;;;12.07;6.28;;;6.00;99.90;;;;;;5077591;28;20223;-87
2021/04/23 05:32:45;;;;;;;13.55;6.93;;;;;;;;;;5075311;28;20202;-86
2021/04/23 05:35:13;;;;;;;15.63;7.40;;;6.50;99.90;;;;;;5073574;28;20232;-87
2021/04/23 05:37:39;;;;;;;15.43;7.30;;;6.30;99.90;;;;;;5078027;28;20215;-87
2021/04/23 05:40:10;;;;;;;16.00;7.00;;;6.40;99.90;;;;;;5077858;28;20238;-86
2021/04/23 05:42:36;;;;;;;16.23;6.13;;;6.90;99.90;;;;;;5080282;28;20167;-87
2021/04/23 05:45:03;;;;;;;14.07;6.55;;;;;;;;;;5079717;28;20202;-87
2021/04/23 05:47:29;;;;;;;23.67;6.85;;;6.60;99.90;;;;;;5078495;28;20225;-85
2021/04/23 05:49:56;;;;;;;13.68;5.95;;;7.00;99.90;;;;;;5079568;28;20225;-86
2021/04/23 05:52:22;;;;;;;10.52;6.63;;;;;;;;;;5073926;28;20203;-87
2021/04/23 05:54:52;;;;;;;10.48;6.65;;;6.70;99.90;;;;;;5071020;28;20214;-87
2021/04/23 05:57:19;;;;;;;16.00;4.75;;;6.50;99.90;;;;;;5070872;28;20214;-86
2021/04/23 05:59:45;;;;;;;12.98;6.40;;;;;;;;;;5074359;28;20207;-85
2021/04/23 06:02:14;;;;;;;10.93;5.93;;;6.70;99.90;;;;;;5077412;28;20203;-86
2021/04/23 06:04:40;;;;;;;14.35;7.13;;;;;;;;;;5070062;28;20210;-87
2021/04/23 06:07:07;;;;;;;18.15;6.40;;;6.70;99.90;;;;;;5069766;28;20203;-87
2021/04/23 06:09:33;;;;;;;16.15;7.43;;;;;;;;;;5069589;28;20203;-87
2021/04/23 06:12:00;;;;;;;11.57;5.88;;;;;;;;;;5069036;28;20227;-86
2021/04/23 06:14:27;;;;;;;10.15;6.10;;;7.10;99.90;;;;;;5069243;28;20230;-86
2021/04/23 06:16:54;;;;;;;9.60;6.45;;;6.90;99.90;;;;;;5069930;28;20203;-86
2021/04/23 06:19:21;;;;;;;16.15;6.32;;;7.00;99.90;;;;;;5074884;28;20222;-86
2021/04/23 06:21:48;;;;;;;14.38;5.78;;;;;;;;;;5073863;28;20207;-86
2021/04/23 06:24:14;;;;;;;12.00;5.57;;;;;;;;;;5070907;28;20203;-86
2021/04/23 06:26:40;;;;;;;9.65;5.25;;;6.60;99.90;;;;;;5068553;28;20207;-86
2021/04/23 06:29:07;;;;;;;14.13;5.68;;;6.70;99.90;;;;;;5072012;28;20203;-87
2021/04/23 06:31:34;;;;;;;11.80;6.00;;;7.00;99.90;;;;;;5071766;28;20234;-86
2021/04/23 06:34:00;;;;;;;15.02;4.47;;;;;;;;;;5071496;28;20203;-84
2021/04/23 06:36:27;;;;;;;15.00;6.38;;;;;;;;;;5072579;28;20203;-84
2021/04/23 06:38:53;;;;;;;14.98;5.82;;;6.80;99.90;;;;;;5072292;28;20207;-84
2021/04/23 06:41:20;;;;;;;13.43;6.25;;;;;;;;;;5074237;28;20242;-85
2021/04/23 06:43:47;;;;;;;18.75;6.15;;;;;;;;;;5076163;28;20203;-85
2021/04/23 06:46:13;;;;;;;15.10;5.72;;;;;;;;;;5073853;28;20272;-85
2021/04/23 06:48:41;;;;;;;10.20;6.53;;;;;;;;;;5077843;28;20213;-85
2021/04/23 06:51:08;;;;;;;13.40;6.10;;;;;;;;;;5076510;28;20227;-85
2021/04/23 06:53:34;;;;;;;10.02;5.45;;;;;;;;;;5070612;28;20286;-85
2021/04/23 06:56:03;;;;;;;13.90;6.18;;;;;;;;;;5070254;28;20202;-85
2021/04/23 06:58:30;;;;;;;11.05;6.25;;;7.20;99.90;;;;;;5067376;28;20207;-86
2021/04/23 07:00:57;;;;;;;15.27;5.43;;;6.90;99.90;;;;;;5066787;28;20227;-85
2021/04/23 07:03:24;;;;;;;9.60;6.10;;;;;;;;;;5067725;28;20227;-84
2021/04/23 07:05:55;;;;;;;14.48;6.00;;;;;;;;;;5065921;28;20217;-86
2021/04/23 07:08:21;;;;;;;28.85;16.90;;;;;;;;;;5066532;28;20254;-85
2021/04/23 07:10:48;;;;;;;13.93;6.47;;;;;;;;;;5067166;28;20226;-85
2021/04/23 07:13:16;;;;;;;16.23;9.60;;;7.70;99.90;;;;;;5065833;28;20245;-85
2021/04/23 07:15:42;;;;;;;7.57;4.38;;;7.70;99.90;;;;;;5066747;28;20203;-86
2021/04/23 07:18:09;;;;;;;11.88;4.60;;;;;;;;;;5063333;28;20577;-85
2021/04/23 07:20:35;;;;;;;9.70;5.93;;;;;;;;;;5065329;28;20227;-85
2021/04/23 07:23:03;;;;;;;14.93;6.50;;;7.50;99.90;;;;;;5068290;28;20225;-86
2021/04/23 07:25:29;;;;;;;12.18;5.78;;;7.40;99.90;;;;;;5067542;28;20666;-86
2021/04/23 07:27:58;;;;;;;11.88;5.20;;;7.30;99.90;;;;;;5066962;28;20230;-84
2021/04/23 07:30:27;;;;;;;11.02;5.10;;;7.60;99.90;;;;;;5066480;28;20253;-85
2021/04/23 07:32:54;;;;;;;9.95;5.47;;;7.30;99.90;;;;;;5068624;28;20242;-85
2021/04/23 07:35:22;;;;;;;10.60;5.90;;;7.90;99.90;;;;;;5068917;28;20251;-86
2021/04/23 07:37:48;;;;;;;12.07;4.97;;;7.60;99.90;;;;;;5067556;28;20217;-85
2021/04/23 07:40:17;;;;;;;10.93;4.72;;;8.20;99.90;;;;;;5066078;28;20230;-85
2021/04/23 07:42:44;;;;;;;8.02;4.75;;;8.30;99.90;;;;;;5065812;28;20585;-87
2021/04/23 07:45:11;;;;;;;13.52;5.35;;;8.10;99.90;;;;;;5065456;28;20207;-87
2021/04/23 07:47:38;;;;;;;8.82;3.80;;;;;;;;;;5066800;28;20558;-86
2021/04/23 07:50:05;;;;;;;11.68;5.28;;;;;;;;;;5067672;28;20262;-87
2021/04/23 07:52:32;;;;;;;8.47;3.87;;;;;;;;;;5064363;28;20660;-85
2021/04/23 07:55:01;;;;;;;11.88;6.20;;;;;;;;;;5065164;28;20445;-86
2021/04/23 07:57:29;;;;;;;8.40;5.30;;;;;;;;;;5065369;28;20309;-86
2021/04/23 07:59:55;;;;;;;8.63;4.07;;;;;;;;;;5065035;28;20489;-84
2021/04/23 08:02:22;;;;;;;12.63;4.10;;;;;;;;;;5071883;28;20187;-85
2021/04/23 08:04:49;;;;;;;9.37;4.63;;;;;;;;;;5069058;28;20536;-84
2021/04/23 08:07:16;;;;;;;12.75;4.10;;;;;;;;;;5064713;28;20948;-86
2021/04/23 08:09:42;;;;;;;8.23;4.63;;;;;;;;;;5067532;28;20265;-85
2021/04/23 08:12:09;;;;;;;11.73;4.83;;;8.10;99.90;;;;;;5067023;28;20227;-86
2021/04/23 08:14:37;;;;;;;15.45;4.38;;;;;;;;;;5068196;28;20453;-84
2021/04/23 08:17:03;;;;;;;11.52;4.20;;;;;;;;;;5065957;28;20207;-86
2021/04/23 08:19:30;;;;;;;9.50;5.00;;;;;;;;;;5064707;28;20203;-85
2021/04/23 08:21:57;;;;;;;6.20;4.63;;;;;;;;;;5064008;28;20465;-86
2021/04/23 08:24:25;;;;;;;6.25;3.40;;;;;;;;;;5065217;28;20452;-86
2021/04/23 08:26:54;;;;;;;10.43;6.00;;;;;;;;;;5064392;28;20611;-86
2021/04/23 08:29:20;;;;;;;13.13;4.72;;;;;;;;;;5065458;28;20207;-85
2021/04/23 08:31:48;;;;;;;12.20;4.40;;;;;;;;;;5065982;28;20226;-87
2021/04/23 08:34:15;;;;;;;7.05;4.45;;;;;;;;;;5063474;28;20187;-88
2021/04/23 08:36:41;;;;;;;8.17;3.60;;;;;;;;;;5065098;28;20207;-86
2021/04/23 08:39:12;;;;;;;12.97;5.37;;;8.70;99.90;;;;;;5201869;22;20500;-81
2021/04/23 08:41:48;;;;;;;5.97;4.60;;;;;;;;;;5077824;28;20474;-80
2021/04/23 08:44:15;;;;;;;11.00;4.97;;;;;;;;;;5078628;28;20504;-81
2021/04/23 08:46:42;;;;;;;9.37;4.20;;;;;;;;;;5076943;28;20445;-81
2021/04/23 08:49:19;;;;;;;7.90;3.77;;;;;;;;;;5078347;28;20466;-81
2021/04/23 08:51:57;;;;;;;9.50;3.97;;;;;;;;;;5078283;28;20439;-82
2021/04/23 08:54:24;;;;;;;10.57;4.67;;;;;;;;;;5078039;28;20460;-81
2021/04/23 08:56:56;;;;;;;17.13;4.10;;;;;;;;;;5074885;28;20445;-81
2021/04/23 08:59:23;;;;;;;9.83;3.63;;;;;;;;;;5072427;28;20496;-81
2021/04/23 09:01:49;;;;;;;6.67;3.70;;;;;;;;;;5077540;28;20461;-81
2021/04/23 09:04:21;;;;;;;12.77;3.83;;;;;;;;;;5078798;28;20487;-81
2021/04/23 09:07:06;;;;;;;5.83;3.30;;;9.00;99.90;;;;;;5077656;28;20438;-83
2021/04/23 09:09:36;;;;;;;8.50;3.77;;;;;;;;;;5071772;28;20845;-82
2021/04/23 09:25:56;;;;;;;7.63;3.73;;;9.30;99.90;;;;;;4868274;29;20434;-81
2021/04/23 09:40:16;;;;;;;10.00;3.93;;;;;;;;;;5089865;22;20488;-84
2021/04/23 09:42:44;;;;;;;10.10;4.03;;;;;;;;;;5065791;28;20254;-82
2021/04/23 09:45:11;;;;;;;10.83;4.80;;;10.30;99.90;;;;;;5063731;28;20509;-83
2021/04/23 09:47:38;;;;;;;10.10;4.50;;;;;;;;;;5065134;28;20412;-83
2021/04/23 09:50:12;;;;;;;13.10;5.33;;;10.50;99.90;;;;;;5063750;28;20463;-82
2021/04/23 09:52:48;;;;;;;11.40;4.53;;;9.90;99.90;;;;;;5063610;28;20517;-82
2021/04/23 09:55:16;;;;;;;11.27;3.63;;;10.50;99.90;;;;;;5063260;28;20429;-83
2021/04/23 09:57:49;;;;;;;7.73;4.63;;;10.40;99.90;;;;;;5064612;28;20409;-83
2021/04/23 10:00:16;;;;;;;7.00;4.23;;;10.80;99.90;;;;;;5063811;28;20964;-83
2021/04/23 10:02:43;;;;;;;9.90;4.17;;;10.70;99.90;;;;;;5064108;28;20457;-82
2021/04/23 10:05:11;;;;;;;6.90;3.80;;;;;;;;;;5063012;28;20457;-82
2021/04/23 10:07:37;;;;;;;5.40;3.43;;;;;;;;;;5062562;28;20445;-83
2021/04/23 10:10:09;;;;;;;11.57;3.80;;;10.80;99.90;;;;;;5062528;28;20480;-82
2021/04/23 10:12:39;;;;;;;8.30;3.47;;;10.50;99.90;;;;;;5062830;28;20434;-83
2021/04/23 10:15:09;;;;;;;5.73;3.60;;;10.70;99.90;;;;;;5062614;28;20457;-84
2021/04/23 10:17:36;;;;;;;12.00;3.67;;;10.90;99.90;;;;;;5063934;28;20797;-83
2021/04/23 10:20:05;;;;;;;6.27;3.00;;;11.00;99.90;;;;;;5064078;28;20485;-83
2021/04/23 10:22:33;;;;;;;9.27;3.10;;;11.10;99.90;;;;;;5063862;28;20441;-83
2021/04/23 10:24:59;;;;;;;10.80;2.60;;;10.90;99.90;;;;;;5064345;28;20491;-83
2021/04/23 10:27:26;;;;;;;9.90;2.63;;;;;;;;;;5066222;28;20462;-82
2021/04/23 10:29:53;;;;;;;11.83;4.17;;;10.90;99.90;;;;;;5077224;28;20457;-81
2021/04/23 10:32:20;;;;;;;7.97;4.77;;;11.40;99.90;;;;;;5076742;28;20527;-83
2021/04/23 10:34:47;;;;;;;6.40;3.00;;;11.00;99.90;;;;;;5071937;28;20446;-84
2021/04/23 10:37:14;;;;;;;6.03;2.73;;;;;;;;;;5071947;28;20445;-84
2021/04/23 10:39:43;;;;;;;9.43;3.20;;;11.30;99.90;;;;;;5073995;28;20481;-83
2021/04/23 10:42:55;;;;;;;5.40;2.83;;;11.50;99.90;;;;;;5074959;28;20430;-83
2021/04/23 10:45:28;;;;;;;14.07;4.93;;;11.60;99.90;;;;;;5073480;28;20449;-82
2021/04/23 10:47:56;;;;;;;9.53;3.03;;;11.30;99.90;;;;;;5071653;28;20407;-84
2021/04/23 10:50:24;;;;;;;5.97;3.50;;;11.50;99.90;;;;;;5070179;28;20460;-84
2021/04/23 10:53:01;;;;;;;6.50;3.00;;;11.30;99.90;;;;;;5070406;28;20442;-84
2021/04/23 10:55:41;;;;;;;3.43;2.70;;;11.30;99.90;;;;;;5073299;28;20422;-83
2021/04/23 10:58:08;;;;;;;9.37;4.77;;;10.80;99.90;;;;;;5073188;28;20457;-83
2021/04/23 11:00:38;;;;;;;3.80;2.43;;;10.20;99.90;;;;;;5074207;28;20451;-83
2021/04/23 11:03:27;;;;;;;4.60;2.80;;;10.60;99.90;;;;;;5073047;28;20422;-83
2021/04/23 11:05:55;;;;;;;5.30;2.73;;;11.40;99.90;;;;;;5070876;28;20436;-83
2021/04/23 11:08:22;;;;;;;8.30;3.27;;;11.40;99.90;;;;;;5069017;28;20458;-85
2021/04/23 11:11:15;;;;;;;7.03;3.10;;;11.40;99.90;;;;;;5065989;28;20444;-84
2021/04/23 11:13:44;;;;;;;4.30;2.70;;;11.70;99.90;;;;;;5064321;28;20438;-83
2021/04/23 11:16:30;;;;;;;6.63;3.03;;;11.60;99.90;;;;;;5064987;28;20450;-82
2021/04/23 11:19:00;;;;;;;4.87;3.13;;;11.30;99.90;;;;;;5061889;28;20501;-83
2021/04/23 11:21:42;;;;;;;8.07;2.70;;;11.30;99.90;;;;;;5064845;28;21010;-84
2021/04/23 11:24:11;;;;;;;4.67;2.37;;;11.60;99.90;;;;;;5065714;28;20458;-80
2021/04/23 11:27:10;;;;;;;14.53;8.70;;;11.90;99.90;;;;;;5064938;28;20839;-80
2021/04/23 11:29:42;;;;;;;5.63;3.13;;;12.00;99.90;;;;;;5062538;28;20470;-81
2021/04/23 11:32:14;;;;;;;8.20;3.40;;;12.00;99.90;;;;;;5063722;28;20440;-80
2021/04/23 11:34:43;;;;;;;9.03;2.10;;;11.90;99.90;;;;;;5063180;28;20468;-80
2021/04/23 11:37:11;;;;;;;4.10;2.27;;;11.80;99.90;;;;;;5070527;28;20440;-81
2021/04/23 11:39:43;;;;;;;3.73;3.20;;;12.10;98.20;;;;;;5076023;28;20469;-80
2021/04/23 11:42:19;;;;;;;7.70;3.90;;;12.20;99.30;;;;;;5071690;28;20509;-79
2021/04/23 11:44:51;;;;;;;4.90;2.77;;;12.30;99.40;;;;;;5069274;28;20433;-79
2021/04/23 11:47:20;;;;;;;3.90;2.00;;;12.20;99.90;;;;;;5073757;28;20849;-79
2021/04/23 11:49:46;;;;;;;3.60;2.37;;;11.50;99.90;;;;;;5067514;28;20457;-78
2021/04/23 11:52:13;;;;;;;4.30;1.93;;;11.60;99.90;;;;;;5063639;28;20441;-79
2021/04/23 11:54:44;;;;;;;8.50;2.50;;;11.70;99.90;;;;;;5072996;28;20419;-79
2021/04/23 11:57:12;;;;;;;3.70;1.90;;;11.80;99.90;;;;;;5069780;28;20860;-78
2021/04/23 11:59:58;;;;;;;4.80;2.47;;;11.50;99.90;;;;;;5064020;28;20473;-80
2021/04/23 12:02:49;;;;;;;5.30;2.30;;;11.90;97.80;;;;;;5064182;28;20476;-82
2021/04/23 12:05:23;;;;;;;3.07;2.17;;;12.20;99.90;;;;;;5066682;28;20520;-79
2021/04/23 12:07:51;;;;;;;7.50;3.60;;;;;;;;;;5070569;28;20441;-80
2021/04/23 12:10:18;;;;;;;5.37;3.00;;;12.10;99.90;;;;;;5066610;28;20472;-80
2021/04/23 12:12:46;;;;;;;4.00;2.60;;;11.90;99.90;;;;;;5064836;28;20457;-79
2021/04/23 12:15:30;;;;;;;5.27;2.30;;;12.10;99.90;;;;;;5065179;28;20454;-80
2021/04/23 12:17:58;;;;;;;4.30;2.50;;;16.90;99.60;;;;;;5067945;28;20433;-80
2021/04/23 12:20:26;;;;;;;2.13;1.93;;;12.60;97.70;;;;;;5066446;28;20481;-81
2021/04/23 12:22:53;;;;;;;3.57;2.20;;;12.80;99.90;;;;;;5067386;28;20441;-80
2021/04/23 12:25:36;;;;;;;9.80;2.10;;;12.30;99.90;;;;;;5066554;28;20448;-79
2021/04/23 12:28:22;;;;;;;7.27;3.03;;;12.10;99.90;;;;;;5061269;28;20434;-79
2021/04/23 12:30:51;;;;;;;4.03;2.30;;;12.40;96.10;;;;;;5063252;28;20483;-79
2021/04/23 12:33:22;;;;;;;4.43;2.10;;;12.40;99.90;;;;;;5061857;28;20452;-79
2021/04/23 12:35:50;;;;;;;7.93;2.30;;;12.40;95.30;;;;;;5061988;28;20919;-80
2021/04/23 12:38:36;;;;;;;5.77;2.07;;;12.10;99.90;;;;;;5062402;28;20480;-80
2021/04/23 12:41:13;;;;;;;3.30;1.93;;;12.50;94.30;;;;;;5063206;28;20502;-79
2021/04/23 12:43:40;;;;;;;2.97;1.90;;;12.30;94.90;;;;;;5064759;28;20437;-79
2021/04/23 12:46:18;;;;;;;2.37;2.00;;;12.20;93.30;;;;;;5063777;28;20434;-80
2021/04/23 12:48:44;;;;;;;7.23;2.37;;;12.10;99.90;;;;;;5058307;28;20469;-80
2021/04/23 12:51:11;;;;;;;4.60;2.30;;;;;;;;;;5061234;28;20500;-79
2021/04/23 12:53:37;;;;;;;8.17;2.43;;;12.40;99.90;;;;;;5059727;28;20975;-80
2021/04/23 12:56:04;;;;;;;4.73;1.97;;;12.90;99.90;;;;;;5059606;28;20866;-79
2021/04/23 12:58:35;;;;;;;5.43;2.17;;;12.70;99.90;;;;;;5059725;28;20527;-79
2021/04/23 13:01:03;;;;;;;8.37;2.30;;;12.50;92.20;;;;;;5058644;28;20469;-78
2021/04/23 13:03:30;;;;;;;5.83;2.10;;;12.40;99.90;;;;;;5059754;28;20476;-80
2021/04/23 13:05:57;;;;;;;3.90;2.27;;;;;;;;;;5060305;28;20855;-80
2021/04/23 13:08:23;;;;;;;2.80;2.20;;;12.80;99.90;;;;;;5062957;28;20461;-80
2021/04/23 13:10:50;;;;;;;3.23;1.90;;;12.50;99.90;;;;;;5065965;28;20441;-80
2021/04/23 13:13:19;;;;;;;4.80;2.87;;;12.90;89.80;;;;;;5073157;28;20446;-79
2021/04/23 13:15:47;;;;;;;2.80;1.97;;;12.90;90.20;;;;;;5066884;28;20448;-81
2021/04/23 13:18:19;;;;;;;6.27;2.57;;;12.80;99.90;;;;;;5062807;28;20469;-80
2021/04/23 13:20:52;;;;;;;7.03;2.23;;;12.80;87.50;;;;;;5062600;28;20516;-81
2021/04/23 13:23:32;;;;;;;4.83;1.93;;;12.70;99.90;;;;;;5062560;28;20430;-81
2021/04/23 13:25:58;;;;;;;3.47;2.23;;;13.40;99.90;;;;;;5064271;28;20514;-82
2021/04/23 13:28:25;;;;;;;3.90;2.10;;;;;;;;;;5067337;28;20470;-79
2021/04/23 13:30:54;;;;;;;10.10;3.00;;;13.00;99.90;;;;;;5068289;28;20438;-82
2021/04/23 13:33:29;;;;;;;9.83;2.23;;;13.30;99.90;;;;;;5066090;28;20448;-81
2021/04/23 13:36:09;;;;;;;2.37;1.90;;;13.30;85.50;;;;;;5064448;28;20444;-81
2021/04/23 13:38:38;;;;;;;2.63;1.90;;;12.80;99.90;;;;;;5064317;28;20465;-80
2021/04/23 13:41:26;;;;;;;6.27;2.03;;;12.30;99.90;;;;;;5063804;28;20473;-80
2021/04/23 13:44:04;;;;;;;4.67;2.33;;;13.30;99.90;;;;;;5059200;28;20441;-81
2021/04/23 13:46:32;;;;;;;8.20;2.40;;;13.00;83.20;;;;;;5065875;28;20819;-81